Rio Bravo — D5BA9 — position and weather

sailwx.info

Track history (hours):
 
Tides and Currents Weather Stations Pressure Air Temp Water Temp Dewpoint Dewpoint Depression Visibility Wind Speed Wind Dir Waves Ship Positions

Rio Bravo

Last reported at 2017-Sep-19 21:38 UTC. Time now 2017-Sep-22 20:37 UTC.
Position N 40°29' E 028°47'.

Length 286 m; draft 10.9 m.

Type: Ship (hazmat cat D). MMSI: 636092361.

Date/timePositionNaut miles runAvg speedWind from/ knotsBaromVisibWave heightAir tempDewpointWater temp
2017-Sep-19 21:38N 40°29' E 028°47'214.9
2017-Sep-19 21:30N 40°30' E 028°45'817.2
2017-Sep-19 21:01N 40°38' E 028°41'1119.3
2017-Sep-19 20:25N 40°49' E 028°41'914.1
2017-Sep-19 19:49N 40°58' E 028°41'0 0.6
2017-Sep-19 19:17N 40°58' E 028°41'0 0.0
2017-Sep-18 21:33N 40°58' E 028°41'1 2.9
2017-Sep-18 21:23N 40°57' E 028°41'2 4.0
2017-Sep-18 21:00N 40°56' E 028°41'0 0.2
2017-Sep-18 20:30N 40°56' E 028°41'0 0.3
2017-Sep-18 20:00N 40°55' E 028°41'0 0.2
2017-Sep-18 19:30N 40°55' E 028°41'0 0.2
2017-Sep-18 19:00N 40°55' E 028°41'4 8.2
2017-Sep-18 18:30N 40°51' E 028°41'5 9.6
2017-Sep-18 18:00N 40°47' E 028°39'1 1.9
2017-Sep-18 17:30N 40°46' E 028°38'0 0.8
2017-Sep-18 17:00N 40°46' E 028°39'0 0.8
2017-Sep-18 16:30N 40°46' E 028°39'1 1.2
2017-Sep-18 16:00N 40°46' E 028°40'0 0.3
2017-Sep-18 15:28N 40°46' E 028°40'0 0.9
2017-Sep-18 14:59N 40°46' E 028°39'0 0.7
2017-Sep-18 14:30N 40°46' E 028°39'0 0.6
2017-Sep-18 14:00N 40°45' E 028°39'1 1.1
2017-Sep-18 13:28N 40°45' E 028°38'3 0.3
2017-Sep-18 03:39N 40°48' E 028°36'1 3.6
2017-Sep-18 03:30N 40°47' E 028°35'1 1.5
2017-Sep-18 03:00N 40°47' E 028°36'1 0.7
2017-Sep-18 01:33N 40°46' E 028°37'0 0.3
2017-Sep-18 01:29N 40°46' E 028°37'0 0.2
2017-Sep-17 22:51N 40°46' E 028°37'0 0.4
2017-Sep-17 21:36N 40°46' E 028°37'0 0.8
2017-Sep-17 21:29N 40°46' E 028°38'1 1.0
2017-Sep-17 20:57N 40°46' E 028°38'2 0.9
2017-Sep-17 18:31N 40°48' E 028°40'0 0.1
2017-Sep-17 18:01N 40°48' E 028°40'0 0.2
2017-Sep-17 17:54N 40°48' E 028°40'21 1.0
2017-Sep-16 21:04N 40°45' E 029°07'515.9
2017-Sep-16 20:46N 40°45' E 029°01'415.2
2017-Sep-16 20:30N 40°44' E 028°56'714.5
2017-Sep-16 19:59N 40°43' E 028°46'714.6
2017-Sep-16 19:30N 40°43' E 028°37'1514.8
2017-Sep-16 18:28N 40°44' E 028°17'715.1
2017-Sep-16 17:59N 40°43' E 028°07'816.3
2017-Sep-16 17:31N 40°43' E 027°57'916.7
2017-Sep-16 17:00N 40°44' E 027°46'9013.8
2017-Sep-16 10:28N 39°59' E 026°03'913.8
2017-Sep-16 09:48N 39°53' E 025°54'3713.5
2017-Sep-16 07:05N 39°21' E 025°32'214.3
2017-Sep-16 06:57N 39°19' E 025°31'714.7
2017-Sep-16 06:28N 39°12' E 025°27'614.2
2017-Sep-16 06:00N 39°07' E 025°23'714.4
2017-Sep-16 05:30N 39°00' E 025°19'1214.8
2017-Sep-16 04:42N 38°50' E 025°13'314.9
2017-Sep-16 04:30N 38°47' E 025°11'714.9
2017-Sep-16 04:00N 38°40' E 025°08'2014.6
2017-Sep-16 02:38N 38°22' E 024°57'214.9
2017-Sep-16 02:30N 38°20' E 024°56'3014.6
2017-Sep-16 00:27N 37°55' E 024°35'714.9
2017-Sep-15 23:58N 37°50' E 024°28'1015.1
2017-Sep-15 23:20N 37°44' E 024°18'1014.7
2017-Sep-15 22:38N 37°37' E 024°10'214.9
2017-Sep-15 22:29N 37°35' E 024°08'714.4
2017-Sep-15 22:00N 37°35' E 023°59'714.8
2017-Sep-15 21:30N 37°37' E 023°51'714.0
2017-Sep-15 21:01N 37°40' E 023°42'714.4
2017-Sep-15 20:31N 37°47' E 023°38'713.8
2017-Sep-15 20:00N 37°53' E 023°36'4 7.9
2017-Sep-15 19:30N 37°57' E 023°35'0 0.4
2017-Sep-15 19:00N 37°57' E 023°35'0 0.0
2017-Sep-15 18:31N 37°57' E 023°35'0 0.0
2017-Sep-15 17:58N 37°57' E 023°35'0 0.0
2017-Sep-15 17:28N 37°57' E 023°35'0 0.0
2017-Sep-15 16:58N 37°57' E 023°35'0 0.0
2017-Sep-15 16:28N 37°57' E 023°35'0 0.0
2017-Sep-15 15:58N 37°57' E 023°35'0 0.0
2017-Sep-15 15:28N 37°57' E 023°35'0 0.0
2017-Sep-15 14:58N 37°57' E 023°35'0 0.0
2017-Sep-15 14:28N 37°57' E 023°35'0 0.0
2017-Sep-15 13:58N 37°57' E 023°35'0 0.0
2017-Sep-15 13:28N 37°57' E 023°35'0 0.0
2017-Sep-15 12:58N 37°57' E 023°35'0 0.0
2017-Sep-15 12:28N 37°57' E 023°35'0 0.0
2017-Sep-15 11:55N 37°57' E 023°35'0 0.0
2017-Sep-15 11:28N 37°57' E 023°35'0 0.0
2017-Sep-15 10:58N 37°57' E 023°35'0 0.1
2017-Sep-15 10:28N 37°57' E 023°35'0 0.0
2017-Sep-15 09:58N 37°57' E 023°35'0 0.0
2017-Sep-15 09:28N 37°57' E 023°35'0 0.0
2017-Sep-15 08:58N 37°57' E 023°35'0 0.0
2017-Sep-15 08:28N 37°57' E 023°35'0 0.0
2017-Sep-15 07:58N 37°57' E 023°35'0 0.0
2017-Sep-15 07:28N 37°57' E 023°35'0 0.0
2017-Sep-15 06:58N 37°57' E 023°35'0 0.0
2017-Sep-15 06:28N 37°57' E 023°35'0 0.0
2017-Sep-15 05:58N 37°57' E 023°35'0 0.0
2017-Sep-15 05:25N 37°57' E 023°35'0 0.0
2017-Sep-15 05:00N 37°57' E 023°35'1 2.5
2017-Sep-15 04:31N 37°56' E 023°35'2 4.4
2017-Sep-15 04:01N 37°54' E 023°36'2 3.7
2017-Sep-15 03:30N 37°53' E 023°38'3 6.5
2017-Sep-15 03:00N 37°50' E 023°40'4 7.3
2017-Sep-15 02:31N 37°47' E 023°42'4 7.1
2017-Sep-15 02:01N 37°43' E 023°44'612.4
2017-Sep-15 01:30N 37°38' E 023°46'714.4
2017-Sep-15 01:00N 37°30' E 023°46'715.0
2017-Sep-15 00:31N 37°23' E 023°44'816.0
2017-Sep-15 00:00N 37°15' E 023°42'816.8
2017-Sep-14 23:30N 37°07' E 023°40'816.1
2017-Sep-14 23:01N 36°59' E 023°37'815.7
2017-Sep-14 22:30N 36°52' E 023°35'815.3
2017-Sep-14 22:00N 36°44' E 023°32'13713.7
2017-Sep-14 12:00N 35°54' E 020°54'21217.6 090 / 141017.310.8 26.020.625.0
2017-Sep-14 00:00N 35°50' E 016°33'3261.5
2017-Sep-14 00:00N 35°48' E 016°30'713.9 270 / 231014.010.8 23.018.725.0
2017-Sep-13 23:31N 35°50' E 016°22'917.8
2017-Sep-13 23:01N 35°49' E 016°11'917.9
2017-Sep-13 22:31N 35°49' E 016°00'918.0
2017-Sep-13 22:00N 35°49' E 015°49'918.2
2017-Sep-13 21:30N 35°48' E 015°38'918.2
2017-Sep-13 21:00N 35°48' E 015°26'918.4
2017-Sep-13 20:30N 35°48' E 015°15'918.5
2017-Sep-13 20:00N 35°47' E 015°04'918.0
2017-Sep-13 19:30N 35°46' E 014°53'917.9
2017-Sep-13 19:00N 35°46' E 014°42'714.9
2017-Sep-13 18:30N 35°49' E 014°33'1 1.5
2017-Sep-13 18:00N 35°49' E 014°32'0 0.0
2017-Sep-13 17:30N 35°49' E 014°32'0 0.0
2017-Sep-13 16:57N 35°49' E 014°32'0 0.0
2017-Sep-13 16:30N 35°49' E 014°32'0 0.0
2017-Sep-13 15:54N 35°49' E 014°32'0 0.0
2017-Sep-13 15:30N 35°49' E 014°32'0 0.0
2017-Sep-13 14:24N 35°49' E 014°32'0 0.0
2017-Sep-13 13:54N 35°49' E 014°32'0 0.0
2017-Sep-13 13:30N 35°49' E 014°32'0 0.0
2017-Sep-13 12:24N 35°49' E 014°32'0 0.0
2017-Sep-13 12:00N 35°49' E 014°32'0 0.0
2017-Sep-13 11:30N 35°49' E 014°32'0 0.0
2017-Sep-13 10:57N 35°49' E 014°32'0 0.0
2017-Sep-13 10:30N 35°49' E 014°32'0 0.0
2017-Sep-13 09:57N 35°49' E 014°32'0 0.0
2017-Sep-13 09:03N 35°49' E 014°32'0 0.0
2017-Sep-13 08:57N 35°49' E 014°32'0 0.0
2017-Sep-13 08:24N 35°49' E 014°32'0 0.0
2017-Sep-13 08:00N 35°49' E 014°32'0 0.0
2017-Sep-13 07:30N 35°49' E 014°32'0 0.0
2017-Sep-13 07:00N 35°49' E 014°32'0 0.0
2017-Sep-13 06:30N 35°49' E 014°32'0 0.0
2017-Sep-13 06:00N 35°49' E 014°32'0 0.0
2017-Sep-13 05:30N 35°49' E 014°32'0 0.0
2017-Sep-13 05:00N 35°49' E 014°32'0 0.0
2017-Sep-13 04:30N 35°49' E 014°32'0 0.0
2017-Sep-13 04:00N 35°49' E 014°32'0 0.0
2017-Sep-13 03:30N 35°49' E 014°32'0 0.0
2017-Sep-13 03:00N 35°49' E 014°32'0 0.0
2017-Sep-13 02:30N 35°49' E 014°32'0 0.0
2017-Sep-13 01:54N 35°49' E 014°32'0 0.0
2017-Sep-13 01:30N 35°49' E 014°32'0 0.0
2017-Sep-13 01:00N 35°49' E 014°32'0 0.0
2017-Sep-13 00:18N 35°49' E 014°32'0 0.0
2017-Sep-12 23:57N 35°49' E 014°32'0 0.0
2017-Sep-12 23:30N 35°49' E 014°32'0 0.0
2017-Sep-12 22:57N 35°49' E 014°32'0 0.0
2017-Sep-12 22:30N 35°49' E 014°32'0 0.0
2017-Sep-12 21:58N 35°49' E 014°32'0 0.4
2017-Sep-12 21:30N 35°49' E 014°32'2 3.7
2017-Sep-12 21:00N 35°48' E 014°34'4 7.8
2017-Sep-12 20:30N 35°45' E 014°32'612.5
2017-Sep-12 19:59N 35°44' E 014°24'613.4
2017-Sep-12 19:30N 35°48' E 014°17'816.3
2017-Sep-12 19:00N 35°52' E 014°09'816.4
2017-Sep-12 18:30N 35°57' E 014°00'816.5
2017-Sep-12 18:01N 36°01' E 013°52'816.7
2017-Sep-12 17:30N 36°05' E 013°43'816.7
2017-Sep-12 17:00N 36°10' E 013°34'816.3
2017-Sep-12 16:30N 36°15' E 013°26'1015.9
2017-Sep-12 15:50N 36°21' E 013°15'1015.8
2017-Sep-12 15:11N 36°26' E 013°04'315.7
2017-Sep-12 14:58N 36°28' E 013°01'815.8
2017-Sep-12 14:28N 36°32' E 012°52'2317.0
2017-Sep-12 13:06N 36°45' E 012°28'2017.9
2017-Sep-12 12:00N 36°54' E 012°06'21117.6 360 / 141017.410.8 26.014.524.0
2017-Sep-12 00:00N 37°42' E 007°48'11118.5 270 / 161014.210.8 23.019.023.0
2017-Sep-11 18:00N 37°24' E 005°30'10717.8 270 / 161013.410.8 24.720.224.0
2017-Sep-11 12:00N 37°06' E 003°18'10720.5 310 / 211015.010.8 25.016.424.0
2017-Sep-11 06:45N 36°49' E 001°06'1024.3
2017-Sep-11 06:20N 36°47' E 000°53'816.3
2017-Sep-11 05:52N 36°46' E 000°44'820.8
2017-Sep-11 05:29N 36°44' E 000°34'1019.7
2017-Sep-11 04:59N 36°43' E 000°22'1019.9
2017-Sep-11 04:29N 36°41' E 000°10'1120.5
2017-Sep-11 03:57N 36°39' W 000°04'3020.5
2017-Sep-11 02:29N 36°34' W 000°41'1020.0
2017-Sep-11 02:00N 36°33' W 000°53'1020.1
2017-Sep-11 01:30N 36°31' W 001°05'1020.5
2017-Sep-11 01:00N 36°29' W 001°17'1121.0
2017-Sep-11 00:30N 36°27' W 001°30'1019.6
2017-Sep-11 00:00N 36°24' W 001°42'530.1 270 / 141015.010.8 22.015.821.0
2017-Sep-10 23:50N 36°25' W 001°48'16821.1
2017-Sep-10 15:52N 35°59' W 005°14'822.4
2017-Sep-10 15:30N 35°57' W 005°24'3119.8
2017-Sep-10 13:58N 35°54' W 006°01'14319.8
2017-Sep-10 06:43N 36°29' W 008°53'519.9
2017-Sep-10 06:30N 36°30' W 008°58'1520.0
2017-Sep-10 05:46N 36°34' W 009°16'920.0
2017-Sep-10 05:19N 36°40' W 009°24'820.5
2017-Sep-10 04:55N 36°46' W 009°31'4520.4
2017-Sep-10 02:42N 37°30' W 009°44'420.7
2017-Sep-10 02:31N 37°34' W 009°45'1020.3
2017-Sep-10 02:00N 37°44' W 009°47'1020.2
2017-Sep-10 01:30N 37°54' W 009°50'1020.1
2017-Sep-10 01:00N 38°04' W 009°53'1020.2
2017-Sep-10 00:31N 38°13' W 009°57'1020.0
2017-Sep-10 00:01N 38°23' W 010°01'5282.1
2017-Sep-10 00:00N 38°18' W 010°00'1530.8 360 / 121018.710.8 18.415.116.0
2017-Sep-09 23:30N 38°33' W 010°04'1020.8
2017-Sep-09 23:01N 38°43' W 010°07'1020.7
2017-Sep-09 22:30N 38°53' W 010°07'1020.9
2017-Sep-09 22:00N 39°04' W 010°07'  
Track history (hours):
 
Tides and Currents Weather Stations Pressure Air Temp Water Temp Dewpoint Dewpoint Depression Visibility Wind Speed Wind Dir Waves Ship Positions

Rio Bravo

Last reported at 2017-Sep-19 21:38 UTC. Time now 2017-Sep-22 20:37 UTC.
Position N 40°29' E 028°47'.

Length 286 m; draft 10.9 m.

Type: Ship (hazmat cat D). MMSI: 636092361.

Date/timePositionNaut miles runAvg speedWind from/ knotsBaromVisibWave heightAir tempDewpointWater temp
2017-Sep-19 21:38N 40°29' E 028°47'214.9
2017-Sep-19 21:30N 40°30' E 028°45'817.2
2017-Sep-19 21:01N 40°38' E 028°41'1119.3
2017-Sep-19 20:25N 40°49' E 028°41'914.1
2017-Sep-19 19:49N 40°58' E 028°41'0 0.6
2017-Sep-19 19:17N 40°58' E 028°41'0 0.0
2017-Sep-18 21:33N 40°58' E 028°41'1 2.9
2017-Sep-18 21:23N 40°57' E 028°41'2 4.0
2017-Sep-18 21:00N 40°56' E 028°41'0 0.2
2017-Sep-18 20:30N 40°56' E 028°41'0 0.3
2017-Sep-18 20:00N 40°55' E 028°41'0 0.2
2017-Sep-18 19:30N 40°55' E 028°41'0 0.2
2017-Sep-18 19:00N 40°55' E 028°41'4 8.2
2017-Sep-18 18:30N 40°51' E 028°41'5 9.6
2017-Sep-18 18:00N 40°47' E 028°39'1 1.9
2017-Sep-18 17:30N 40°46' E 028°38'0 0.8
2017-Sep-18 17:00N 40°46' E 028°39'0 0.8
2017-Sep-18 16:30N 40°46' E 028°39'1 1.2
2017-Sep-18 16:00N 40°46' E 028°40'0 0.3
2017-Sep-18 15:28N 40°46' E 028°40'0 0.9
2017-Sep-18 14:59N 40°46' E 028°39'0 0.7
2017-Sep-18 14:30N 40°46' E 028°39'0 0.6
2017-Sep-18 14:00N 40°45' E 028°39'1 1.1
2017-Sep-18 13:28N 40°45' E 028°38'3 0.3
2017-Sep-18 03:39N 40°48' E 028°36'1 3.6
2017-Sep-18 03:30N 40°47' E 028°35'1 1.5
2017-Sep-18 03:00N 40°47' E 028°36'1 0.7
2017-Sep-18 01:33N 40°46' E 028°37'0 0.3
2017-Sep-18 01:29N 40°46' E 028°37'0 0.2
2017-Sep-17 22:51N 40°46' E 028°37'0 0.4
2017-Sep-17 21:36N 40°46' E 028°37'0 0.8
2017-Sep-17 21:29N 40°46' E 028°38'1 1.0
2017-Sep-17 20:57N 40°46' E 028°38'2 0.9
2017-Sep-17 18:31N 40°48' E 028°40'0 0.1
2017-Sep-17 18:01N 40°48' E 028°40'0 0.2
2017-Sep-17 17:54N 40°48' E 028°40'21 1.0
2017-Sep-16 21:04N 40°45' E 029°07'515.9
2017-Sep-16 20:46N 40°45' E 029°01'415.2
2017-Sep-16 20:30N 40°44' E 028°56'714.5
2017-Sep-16 19:59N 40°43' E 028°46'714.6
2017-Sep-16 19:30N 40°43' E 028°37'1514.8
2017-Sep-16 18:28N 40°44' E 028°17'715.1
2017-Sep-16 17:59N 40°43' E 028°07'816.3
2017-Sep-16 17:31N 40°43' E 027°57'916.7
2017-Sep-16 17:00N 40°44' E 027°46'9013.8
2017-Sep-16 10:28N 39°59' E 026°03'913.8
2017-Sep-16 09:48N 39°53' E 025°54'3713.5
2017-Sep-16 07:05N 39°21' E 025°32'214.3
2017-Sep-16 06:57N 39°19' E 025°31'714.7
2017-Sep-16 06:28N 39°12' E 025°27'614.2
2017-Sep-16 06:00N 39°07' E 025°23'714.4
2017-Sep-16 05:30N 39°00' E 025°19'1214.8
2017-Sep-16 04:42N 38°50' E 025°13'314.9
2017-Sep-16 04:30N 38°47' E 025°11'714.9
2017-Sep-16 04:00N 38°40' E 025°08'2014.6
2017-Sep-16 02:38N 38°22' E 024°57'214.9
2017-Sep-16 02:30N 38°20' E 024°56'3014.6
2017-Sep-16 00:27N 37°55' E 024°35'714.9
2017-Sep-15 23:58N 37°50' E 024°28'1015.1
2017-Sep-15 23:20N 37°44' E 024°18'1014.7
2017-Sep-15 22:38N 37°37' E 024°10'214.9
2017-Sep-15 22:29N 37°35' E 024°08'714.4
2017-Sep-15 22:00N 37°35' E 023°59'714.8
2017-Sep-15 21:30N 37°37' E 023°51'714.0
2017-Sep-15 21:01N 37°40' E 023°42'714.4
2017-Sep-15 20:31N 37°47' E 023°38'713.8
2017-Sep-15 20:00N 37°53' E 023°36'4 7.9
2017-Sep-15 19:30N 37°57' E 023°35'0 0.4
2017-Sep-15 19:00N 37°57' E 023°35'0 0.0
2017-Sep-15 18:31N 37°57' E 023°35'0 0.0
2017-Sep-15 17:58N 37°57' E 023°35'0 0.0
2017-Sep-15 17:28N 37°57' E 023°35'0 0.0
2017-Sep-15 16:58N 37°57' E 023°35'0 0.0
2017-Sep-15 16:28N 37°57' E 023°35'0 0.0
2017-Sep-15 15:58N 37°57' E 023°35'0 0.0
2017-Sep-15 15:28N 37°57' E 023°35'0 0.0
2017-Sep-15 14:58N 37°57' E 023°35'0 0.0
2017-Sep-15 14:28N 37°57' E 023°35'0 0.0
2017-Sep-15 13:58N 37°57' E 023°35'0 0.0
2017-Sep-15 13:28N 37°57' E 023°35'0 0.0
2017-Sep-15 12:58N 37°57' E 023°35'0 0.0
2017-Sep-15 12:28N 37°57' E 023°35'0 0.0
2017-Sep-15 11:55N 37°57' E 023°35'0 0.0
2017-Sep-15 11:28N 37°57' E 023°35'0 0.0
2017-Sep-15 10:58N 37°57' E 023°35'0 0.1
2017-Sep-15 10:28N 37°57' E 023°35'0 0.0
2017-Sep-15 09:58N 37°57' E 023°35'0 0.0
2017-Sep-15 09:28N 37°57' E 023°35'0 0.0
2017-Sep-15 08:58N 37°57' E 023°35'0 0.0
2017-Sep-15 08:28N 37°57' E 023°35'0 0.0
2017-Sep-15 07:58N 37°57' E 023°35'0 0.0
2017-Sep-15 07:28N 37°57' E 023°35'0 0.0
2017-Sep-15 06:58N 37°57' E 023°35'0 0.0
2017-Sep-15 06:28N 37°57' E 023°35'0 0.0
2017-Sep-15 05:58N 37°57' E 023°35'0 0.0
2017-Sep-15 05:25N 37°57' E 023°35'0 0.0
2017-Sep-15 05:00N 37°57' E 023°35'1 2.5
2017-Sep-15 04:31N 37°56' E 023°35'2 4.4
2017-Sep-15 04:01N 37°54' E 023°36'2 3.7
2017-Sep-15 03:30N 37°53' E 023°38'3 6.5
2017-Sep-15 03:00N 37°50' E 023°40'4 7.3
2017-Sep-15 02:31N 37°47' E 023°42'4 7.1
2017-Sep-15 02:01N 37°43' E 023°44'612.4
2017-Sep-15 01:30N 37°38' E 023°46'714.4
2017-Sep-15 01:00N 37°30' E 023°46'715.0
2017-Sep-15 00:31N 37°23' E 023°44'816.0
2017-Sep-15 00:00N 37°15' E 023°42'816.8
2017-Sep-14 23:30N 37°07' E 023°40'816.1
2017-Sep-14 23:01N 36°59' E 023°37'815.7
2017-Sep-14 22:30N 36°52' E 023°35'815.3
2017-Sep-14 22:00N 36°44' E 023°32'13713.7
2017-Sep-14 12:00N 35°54' E 020°54'21217.6 090 / 141017.310.8 26.020.625.0
2017-Sep-14 00:00N 35°50' E 016°33'3261.5
2017-Sep-14 00:00N 35°48' E 016°30'713.9 270 / 231014.010.8 23.018.725.0
2017-Sep-13 23:31N 35°50' E 016°22'917.8
2017-Sep-13 23:01N 35°49' E 016°11'917.9
2017-Sep-13 22:31N 35°49' E 016°00'918.0
2017-Sep-13 22:00N 35°49' E 015°49'918.2
2017-Sep-13 21:30N 35°48' E 015°38'918.2
2017-Sep-13 21:00N 35°48' E 015°26'918.4
2017-Sep-13 20:30N 35°48' E 015°15'918.5
2017-Sep-13 20:00N 35°47' E 015°04'918.0
2017-Sep-13 19:30N 35°46' E 014°53'917.9
2017-Sep-13 19:00N 35°46' E 014°42'714.9
2017-Sep-13 18:30N 35°49' E 014°33'1 1.5
2017-Sep-13 18:00N 35°49' E 014°32'0 0.0
2017-Sep-13 17:30N 35°49' E 014°32'0 0.0
2017-Sep-13 16:57N 35°49' E 014°32'0 0.0
2017-Sep-13 16:30N 35°49' E 014°32'0 0.0
2017-Sep-13 15:54N 35°49' E 014°32'0 0.0
2017-Sep-13 15:30N 35°49' E 014°32'0 0.0
2017-Sep-13 14:24N 35°49' E 014°32'0 0.0
2017-Sep-13 13:54N 35°49' E 014°32'0 0.0
2017-Sep-13 13:30N 35°49' E 014°32'0 0.0
2017-Sep-13 12:24N 35°49' E 014°32'0 0.0
2017-Sep-13 12:00N 35°49' E 014°32'0 0.0
2017-Sep-13 11:30N 35°49' E 014°32'0 0.0
2017-Sep-13 10:57N 35°49' E 014°32'0 0.0
2017-Sep-13 10:30N 35°49' E 014°32'0 0.0
2017-Sep-13 09:57N 35°49' E 014°32'0 0.0
2017-Sep-13 09:03N 35°49' E 014°32'0 0.0
2017-Sep-13 08:57N 35°49' E 014°32'0 0.0
2017-Sep-13 08:24N 35°49' E 014°32'0 0.0
2017-Sep-13 08:00N 35°49' E 014°32'0 0.0
2017-Sep-13 07:30N 35°49' E 014°32'0 0.0
2017-Sep-13 07:00N 35°49' E 014°32'0 0.0
2017-Sep-13 06:30N 35°49' E 014°32'0 0.0
2017-Sep-13 06:00N 35°49' E 014°32'0 0.0
2017-Sep-13 05:30N 35°49' E 014°32'0 0.0
2017-Sep-13 05:00N 35°49' E 014°32'0 0.0
2017-Sep-13 04:30N 35°49' E 014°32'0 0.0
2017-Sep-13 04:00N 35°49' E 014°32'0 0.0
2017-Sep-13 03:30N 35°49' E 014°32'0 0.0
2017-Sep-13 03:00N 35°49' E 014°32'0 0.0
2017-Sep-13 02:30N 35°49' E 014°32'0 0.0
2017-Sep-13 01:54N 35°49' E 014°32'0 0.0
2017-Sep-13 01:30N 35°49' E 014°32'0 0.0
2017-Sep-13 01:00N 35°49' E 014°32'0 0.0
2017-Sep-13 00:18N 35°49' E 014°32'0 0.0
2017-Sep-12 23:57N 35°49' E 014°32'0 0.0
2017-Sep-12 23:30N 35°49' E 014°32'0 0.0
2017-Sep-12 22:57N 35°49' E 014°32'0 0.0
2017-Sep-12 22:30N 35°49' E 014°32'0 0.0
2017-Sep-12 21:58N 35°49' E 014°32'0 0.4
2017-Sep-12 21:30N 35°49' E 014°32'2 3.7
2017-Sep-12 21:00N 35°48' E 014°34'4 7.8
2017-Sep-12 20:30N 35°45' E 014°32'612.5
2017-Sep-12 19:59N 35°44' E 014°24'613.4
2017-Sep-12 19:30N 35°48' E 014°17'816.3
2017-Sep-12 19:00N 35°52' E 014°09'816.4
2017-Sep-12 18:30N 35°57' E 014°00'816.5
2017-Sep-12 18:01N 36°01' E 013°52'816.7
2017-Sep-12 17:30N 36°05' E 013°43'816.7
2017-Sep-12 17:00N 36°10' E 013°34'816.3
2017-Sep-12 16:30N 36°15' E 013°26'1015.9
2017-Sep-12 15:50N 36°21' E 013°15'1015.8
2017-Sep-12 15:11N 36°26' E 013°04'315.7
2017-Sep-12 14:58N 36°28' E 013°01'815.8
2017-Sep-12 14:28N 36°32' E 012°52'2317.0
2017-Sep-12 13:06N 36°45' E 012°28'2017.9
2017-Sep-12 12:00N 36°54' E 012°06'21117.6 360 / 141017.410.8 26.014.524.0
2017-Sep-12 00:00N 37°42' E 007°48'11118.5 270 / 161014.210.8 23.019.023.0
2017-Sep-11 18:00N 37°24' E 005°30'10717.8 270 / 161013.410.8 24.720.224.0
2017-Sep-11 12:00N 37°06' E 003°18'10720.5 310 / 211015.010.8 25.016.424.0
2017-Sep-11 06:45N 36°49' E 001°06'1024.3
2017-Sep-11 06:20N 36°47' E 000°53'816.3
2017-Sep-11 05:52N 36°46' E 000°44'820.8
2017-Sep-11 05:29N 36°44' E 000°34'1019.7
2017-Sep-11 04:59N 36°43' E 000°22'1019.9
2017-Sep-11 04:29N 36°41' E 000°10'1120.5
2017-Sep-11 03:57N 36°39' W 000°04'3020.5
2017-Sep-11 02:29N 36°34' W 000°41'1020.0
2017-Sep-11 02:00N 36°33' W 000°53'1020.1
2017-Sep-11 01:30N 36°31' W 001°05'1020.5
2017-Sep-11 01:00N 36°29' W 001°17'1121.0
2017-Sep-11 00:30N 36°27' W 001°30'1019.6
2017-Sep-11 00:00N 36°24' W 001°42'530.1 270 / 141015.010.8 22.015.821.0
2017-Sep-10 23:50N 36°25' W 001°48'16821.1
2017-Sep-10 15:52N 35°59' W 005°14'822.4
2017-Sep-10 15:30N 35°57' W 005°24'3119.8
2017-Sep-10 13:58N 35°54' W 006°01'14319.8
2017-Sep-10 06:43N 36°29' W 008°53'519.9
2017-Sep-10 06:30N 36°30' W 008°58'1520.0
2017-Sep-10 05:46N 36°34' W 009°16'920.0
2017-Sep-10 05:19N 36°40' W 009°24'820.5
2017-Sep-10 04:55N 36°46' W 009°31'4520.4
2017-Sep-10 02:42N 37°30' W 009°44'420.7
2017-Sep-10 02:31N 37°34' W 009°45'1020.3
2017-Sep-10 02:00N 37°44' W 009°47'1020.2
2017-Sep-10 01:30N 37°54' W 009°50'1020.1
2017-Sep-10 01:00N 38°04' W 009°53'1020.2
2017-Sep-10 00:31N 38°13' W 009°57'1020.0
2017-Sep-10 00:01N 38°23' W 010°01'5282.1
2017-Sep-10 00:00N 38°18' W 010°00'1530.8 360 / 121018.710.8 18.415.116.0
2017-Sep-09 23:30N 38°33' W 010°04'1020.8
2017-Sep-09 23:01N 38°43' W 010°07'1020.7
2017-Sep-09 22:30N 38°53' W 010°07'1020.9
2017-Sep-09 22:00N 39°04' W 010°07'  

Dump ship's entire track history